Карточка аэропорта URSS

Внимание!
Информация на этой странице в стадии наполнения.
Если вы не увидели какой-то информации, или заметили неточность - пожалуйста сообщите нам!
Спасибо!
Команда RU-STAFF
Название аэропортаСочи
Название аэропорта (англ.)Sochi
Превышение89 ft. (27.1 m.)
Координаты43°26.634', 39°56.55'
Высота перехода13000 ft
Эшелон переходаQNH>=977hPa: FL150; QNH<977hPa: FL160
Коды ответчика1060-1077
Зона ОрВДРостов-на-Дону РПИ (URRV)
Данные METARURSS 211030Z 28008G14MPS 9999 FEW050CB BKN100 18/11 Q1014 WS ALL RWY R02/010070 R06/////// NOSIG RMK R06/29010G14MPS QFE759
Проноз погоды (TAF)URSS 210756Z 2109/2209 28007G12MPS 9999 SCT040CB BKN100 TEMPO 2109/2116 VRB08G15MPS -TSRA BECMG 2116/2118 30005G10MPS BKN100 BECMG 2119/2121 05003G08MPS BECMG 2206/2207 18003G08MPS SCT100
NOTAMshow/hide NOTAM
AWOS   TABLE

Информация о ВПП

ВПП Длина ВПП (м.) Покрытие Курс ВПП Частота ILS
242890Цементобетон238 
202500Цементобетон202 
022500Цементобетон22110.5
062890Цементобетон58111.1

Диспетчерские позиции

Позывной Наименование органа УВД Частота
URSSFM1119.000
URSS_APPСочи-Подход124.600
URSS_DELСочи-Деливери132.700
URSS_GNDСочи-Руление119.000
URSS_R_APPСочи-Круг119.700
URSS_TWRСочи-Старт121.200



Спутниковое изображение